createdAt,value
2023-01-05T00:00:01.788Z,1002.71
2023-01-05T00:01:01.773Z,1002.79
2023-01-05T00:02:01.836Z,1002.67
2023-01-05T00:03:01.741Z,1002.71
2023-01-05T00:04:01.798Z,1002.70
2023-01-05T00:05:01.721Z,1002.80
2023-01-05T00:06:01.734Z,1002.79
2023-01-05T00:07:01.702Z,1002.82
2023-01-05T00:08:01.713Z,1002.78
2023-01-05T00:09:01.674Z,1002.76
2023-01-05T00:10:01.667Z,1002.69
2023-01-05T00:11:01.666Z,1002.75
2023-01-05T00:12:01.668Z,1002.77
2023-01-05T00:13:01.653Z,1002.74
2023-01-05T00:14:01.630Z,1002.79
2023-01-05T00:15:01.610Z,1002.68
2023-01-05T00:16:01.797Z,1002.77
2023-01-05T00:17:01.616Z,1002.71
2023-01-05T00:18:01.636Z,1002.76
2023-01-05T00:19:01.576Z,1002.62
2023-01-05T00:20:01.615Z,1002.82
2023-01-05T00:21:01.541Z,1002.70
2023-01-05T00:22:01.562Z,1002.71
2023-01-05T00:23:01.553Z,1002.67
2023-01-05T00:24:01.516Z,1002.63
2023-01-05T00:25:04.784Z,1002.68
2023-01-05T00:26:02.504Z,1002.57
2023-01-05T00:27:01.482Z,1002.77
2023-01-05T00:28:01.497Z,1002.75
2023-01-05T00:29:01.466Z,1002.71
2023-01-05T00:30:01.454Z,1002.55
2023-01-05T00:31:01.451Z,1002.75
2023-01-05T00:32:01.469Z,1002.72
2023-01-05T00:33:01.437Z,1002.75
2023-01-05T00:34:01.428Z,1002.61
2023-01-05T00:35:01.392Z,1002.80
2023-01-05T00:36:01.389Z,1002.80
2023-01-05T00:37:01.383Z,1002.76
2023-01-05T00:38:01.385Z,1002.84
2023-01-05T00:39:01.351Z,1002.82
2023-01-05T00:40:01.348Z,1002.77
2023-01-05T00:41:01.332Z,1002.77
2023-01-05T00:42:01.330Z,1002.73
2023-01-05T00:43:01.330Z,1002.68
2023-01-05T00:44:01.299Z,1002.82
2023-01-05T00:45:01.301Z,1002.78
2023-01-05T00:46:01.351Z,1002.74
2023-01-05T00:47:01.267Z,1002.60
2023-01-05T00:48:01.284Z,1002.58
2023-01-05T00:49:01.248Z,1002.55
2023-01-05T00:50:01.250Z,1002.62
2023-01-05T00:51:01.228Z,1002.58
2023-01-05T00:52:01.221Z,1002.73
2023-01-05T00:53:01.239Z,1002.71
2023-01-05T00:54:01.188Z,1002.76
2023-01-05T00:55:01.182Z,1002.70
2023-01-05T00:56:01.162Z,1002.74
2023-01-05T00:57:01.155Z,1002.60
2023-01-05T00:58:01.167Z,1002.64
2023-01-05T00:59:01.135Z,1002.72
2023-01-05T01:00:01.122Z,1002.75
2023-01-05T01:01:01.193Z,1002.72
2023-01-05T01:02:01.222Z,1002.72
2023-01-05T01:03:01.174Z,1002.76
2023-01-05T01:04:01.085Z,1002.70
2023-01-05T01:05:01.081Z,1002.72
2023-01-05T01:06:01.112Z,1002.74
2023-01-05T01:07:01.057Z,1002.63
2023-01-05T01:08:01.032Z,1002.80
2023-01-05T01:09:01.049Z,1002.72
2023-01-05T01:10:01.011Z,1002.71
2023-01-05T01:11:01.026Z,1002.70
2023-01-05T01:12:00.991Z,1002.73
2023-01-05T01:13:00.998Z,1002.80
2023-01-05T01:14:00.998Z,1002.68
2023-01-05T01:15:00.980Z,1002.66
2023-01-05T01:16:00.946Z,1002.76
2023-01-05T01:17:01.020Z,1002.72
2023-01-05T01:18:00.934Z,1002.75
2023-01-05T01:19:05.109Z,1002.71
2023-01-05T01:20:00.936Z,1002.74
2023-01-05T01:21:00.893Z,1002.67
2023-01-05T01:22:00.902Z,1002.68
2023-01-05T01:23:00.875Z,1002.68
2023-01-05T01:24:00.866Z,1002.70
2023-01-05T01:25:00.872Z,1002.69
2023-01-05T01:26:00.836Z,1002.76
2023-01-05T01:27:00.851Z,1002.69
2023-01-05T01:28:00.822Z,1002.71
2023-01-05T01:29:00.827Z,1002.67
2023-01-05T01:30:00.797Z,1002.81
2023-01-05T01:31:00.841Z,1002.76
2023-01-05T01:32:00.801Z,1002.75
2023-01-05T01:33:00.768Z,1002.76
2023-01-05T01:34:00.750Z,1002.74
2023-01-05T01:35:00.770Z,1002.79
2023-01-05T01:36:00.759Z,1002.77
2023-01-05T01:37:29.665Z,1002.77
2023-01-05T01:38:29.651Z,1002.72
2023-01-05T01:39:29.638Z,1002.76
2023-01-05T01:40:29.620Z,1002.75
2023-01-05T01:41:29.616Z,1002.73
2023-01-05T01:42:29.618Z,1002.79
2023-01-05T01:43:29.603Z,1002.78
2023-01-05T01:44:29.575Z,1002.77
2023-01-05T01:45:29.618Z,1002.69
2023-01-05T01:46:29.615Z,1002.76
2023-01-05T01:47:29.535Z,1002.75
2023-01-05T01:48:29.535Z,1002.61
2023-01-05T01:49:29.538Z,1002.71
2023-01-05T01:50:29.501Z,1002.77
2023-01-05T01:51:29.495Z,1002.77
2023-01-05T01:52:29.508Z,1002.75
2023-01-05T01:53:29.534Z,1002.79
2023-01-05T01:54:29.455Z,1002.80
2023-01-05T01:55:29.470Z,1002.75
2023-01-05T01:56:29.431Z,1002.79
2023-01-05T01:57:29.421Z,1002.81
2023-01-05T01:58:29.423Z,1002.75
2023-01-05T01:59:29.402Z,1002.74
2023-01-05T02:00:29.421Z,1002.76
2023-01-05T02:01:29.508Z,1002.66
2023-01-05T02:02:29.602Z,1002.79
2023-01-05T02:03:29.360Z,1002.60
2023-01-05T02:04:29.442Z,1002.73
2023-01-05T02:05:29.375Z,1002.62
2023-01-05T02:06:29.330Z,1002.64
2023-01-05T02:07:29.356Z,1002.57
2023-01-05T02:08:29.314Z,1002.67
2023-01-05T02:09:29.357Z,1002.67
2023-01-05T02:10:29.293Z,1002.67
2023-01-05T02:11:29.310Z,1002.64
2023-01-05T02:12:29.265Z,1002.61
2023-01-05T02:13:31.604Z,1002.69
2023-01-05T02:14:29.239Z,1002.70
2023-01-05T02:15:29.230Z,1002.70
2023-01-05T02:16:29.299Z,1002.68
2023-01-05T02:17:29.221Z,1002.64
2023-01-05T02:18:29.222Z,1002.70
2023-01-05T02:19:29.190Z,1002.62
2023-01-05T02:20:29.172Z,1002.64
2023-01-05T02:21:29.181Z,1002.62
2023-01-05T02:22:29.171Z,1002.57
2023-01-05T02:23:29.154Z,1002.55
2023-01-05T02:24:29.126Z,1002.61
2023-01-05T02:25:29.235Z,1002.62
2023-01-05T02:26:29.136Z,1002.52
2023-01-05T02:27:29.124Z,1002.60
2023-01-05T02:28:29.085Z,1002.61
2023-01-05T02:29:29.081Z,1002.45
2023-01-05T02:30:29.136Z,1002.60
2023-01-05T02:31:29.078Z,1002.65
2023-01-05T02:32:29.040Z,1002.58
2023-01-05T02:33:29.027Z,1002.61
2023-01-05T02:34:29.022Z,1002.61
2023-01-05T02:35:29.002Z,1002.58
2023-01-05T02:36:29.149Z,1002.58
2023-01-05T02:37:29.010Z,1002.60
2023-01-05T02:38:28.972Z,1002.62
2023-01-05T02:39:28.959Z,1002.60
2023-01-05T02:40:28.982Z,1002.65
2023-01-05T02:41:28.955Z,1002.64
2023-01-05T02:42:28.946Z,1002.49
2023-01-05T02:43:28.951Z,1002.53
2023-01-05T02:44:28.921Z,1002.61
2023-01-05T02:45:28.908Z,1002.55
2023-01-05T02:46:28.970Z,1002.62
2023-01-05T02:47:28.880Z,1002.55
2023-01-05T02:48:28.889Z,1002.55
2023-01-05T02:49:28.872Z,1002.45
2023-01-05T02:50:28.846Z,1002.44
2023-01-05T02:51:28.835Z,1002.56
2023-01-05T02:52:28.848Z,1002.46
2023-01-05T02:53:28.824Z,1002.53
2023-01-05T02:54:28.806Z,1002.41
2023-01-05T02:55:28.787Z,1002.51
2023-01-05T02:56:28.777Z,1002.47
2023-01-05T02:57:28.787Z,1002.53
2023-01-05T02:58:28.772Z,1002.46
2023-01-05T02:59:28.740Z,1002.38
2023-01-05T03:00:28.738Z,1002.46
2023-01-05T03:01:28.835Z,1002.54
2023-01-05T03:02:28.953Z,1002.46
2023-01-05T03:03:28.789Z,1002.50
2023-01-05T03:04:28.711Z,1002.53
2023-01-05T03:05:28.676Z,1002.51
2023-01-05T03:06:28.677Z,1002.56
2023-01-05T03:07:28.674Z,1002.61
2023-01-05T03:08:32.742Z,1002.61
2023-01-05T03:09:28.649Z,1002.45
2023-01-05T03:10:28.623Z,1002.58
2023-01-05T03:11:28.625Z,1002.54
2023-01-05T03:12:28.599Z,1002.59
2023-01-05T03:13:28.621Z,1002.55
2023-01-05T03:14:28.605Z,1002.55
2023-01-05T03:15:28.578Z,1002.54
2023-01-05T03:16:28.629Z,1002.52
2023-01-05T03:17:28.556Z,1002.53
2023-01-05T03:18:28.537Z,1002.52
2023-01-05T03:19:28.556Z,1002.54
2023-01-05T03:20:28.515Z,1002.61
2023-01-05T03:21:28.524Z,1002.58
2023-01-05T03:22:28.498Z,1002.55
2023-01-05T03:23:28.475Z,1002.54
2023-01-05T03:24:28.470Z,1002.52
2023-01-05T03:25:28.457Z,1002.48
2023-01-05T03:26:28.456Z,1002.54
2023-01-05T03:27:28.457Z,1002.57
2023-01-05T03:28:28.436Z,1002.55
2023-01-05T03:29:28.430Z,1002.60
2023-01-05T03:30:28.406Z,1002.53
2023-01-05T03:31:28.468Z,1002.61
2023-01-05T03:32:34.805Z,1002.58
2023-01-05T03:33:29.371Z,1002.69
2023-01-05T03:34:28.361Z,1002.60
2023-01-05T03:35:28.349Z,1002.69
2023-01-05T03:36:28.344Z,1002.61
2023-01-05T03:37:28.344Z,1002.70
2023-01-05T03:38:28.318Z,1002.64
2023-01-05T03:39:28.300Z,1002.59
2023-01-05T03:40:28.297Z,1002.69
2023-01-05T03:41:28.282Z,1002.76
2023-01-05T03:42:28.292Z,1002.73
2023-01-05T03:43:28.266Z,1002.69
2023-01-05T03:44:28.284Z,1002.73
2023-01-05T03:45:28.261Z,1002.75
2023-01-05T03:46:28.301Z,1002.80
2023-01-05T03:47:28.235Z,1002.68
2023-01-05T03:48:28.216Z,1002.74
2023-01-05T03:49:28.200Z,1002.77
2023-01-05T03:50:28.183Z,1002.76
2023-01-05T03:51:28.175Z,1002.89
2023-01-05T03:52:28.181Z,1002.83
2023-01-05T03:53:28.157Z,1002.93
2023-01-05T03:54:28.148Z,1002.92
2023-01-05T03:55:28.141Z,1002.95
2023-01-05T03:56:28.127Z,1003.00
2023-01-05T03:57:28.131Z,1002.98
2023-01-05T03:58:28.103Z,1003.02
2023-01-05T03:59:28.095Z,1003.05
2023-01-05T04:00:28.077Z,1002.98
2023-01-05T04:01:28.316Z,1002.97
2023-01-05T04:02:28.265Z,1003.00
2023-01-05T04:03:31.988Z,1002.92
2023-01-05T04:04:28.029Z,1002.99
2023-01-05T04:05:28.015Z,1003.05
2023-01-05T04:06:28.009Z,1003.06
2023-01-05T04:07:28.026Z,1003.17
2023-01-05T04:08:27.986Z,1003.14
2023-01-05T04:09:27.973Z,1003.15
2023-01-05T04:10:27.973Z,1003.13
2023-01-05T04:11:27.986Z,1003.05
2023-01-05T04:12:27.969Z,1003.09
2023-01-05T04:13:27.938Z,1003.13
2023-01-05T04:14:27.918Z,1003.08
2023-01-05T04:15:27.905Z,1003.08
2023-01-05T04:16:27.984Z,1003.14
2023-01-05T04:17:27.905Z,1003.14
2023-01-05T04:18:27.898Z,1003.18
2023-01-05T04:19:27.864Z,1003.16
2023-01-05T04:20:27.860Z,1003.19
2023-01-05T04:21:27.848Z,1003.23
2023-01-05T04:22:27.847Z,1003.19
2023-01-05T04:23:27.844Z,1003.22
2023-01-05T04:24:27.817Z,1003.20
2023-01-05T04:25:27.793Z,1003.20
2023-01-05T04:26:27.813Z,1003.32
2023-01-05T04:27:27.777Z,1003.30
2023-01-05T04:28:27.774Z,1003.25
2023-01-05T04:29:27.771Z,1003.29
2023-01-05T04:30:27.752Z,1003.31
2023-01-05T04:31:27.824Z,1003.38
2023-01-05T04:32:27.723Z,1003.34
2023-01-05T04:33:27.734Z,1003.29
2023-01-05T04:34:27.726Z,1003.38
2023-01-05T04:35:27.708Z,1003.41
2023-01-05T04:36:27.702Z,1003.33
2023-01-05T04:37:27.668Z,1003.47
2023-01-05T04:38:27.657Z,1003.43
2023-01-05T04:39:27.642Z,1003.41
2023-01-05T04:40:27.660Z,1003.50
2023-01-05T04:41:27.623Z,1003.44
2023-01-05T04:42:27.615Z,1003.43
2023-01-05T04:43:27.609Z,1003.38
2023-01-05T04:44:27.600Z,1003.46
2023-01-05T04:45:27.616Z,1003.38
2023-01-05T04:46:27.612Z,1003.38
2023-01-05T04:47:27.555Z,1003.36
2023-01-05T04:48:27.546Z,1003.34
2023-01-05T04:49:27.593Z,1003.35
2023-01-05T04:50:27.557Z,1003.37
2023-01-05T04:51:27.513Z,1003.42
2023-01-05T04:52:27.503Z,1003.37
2023-01-05T04:53:27.493Z,1003.44
2023-01-05T04:54:27.481Z,1003.42
2023-01-05T04:55:27.469Z,1003.48
2023-01-05T04:56:27.499Z,1003.46
2023-01-05T04:57:27.456Z,1003.52
2023-01-05T04:58:27.446Z,1003.52
2023-01-05T04:59:27.422Z,1003.61
2023-01-05T05:00:27.422Z,1003.54
2023-01-05T05:01:27.509Z,1003.66
2023-01-05T05:02:27.565Z,1003.62
2023-01-05T05:03:32.831Z,1003.68
2023-01-05T05:04:28.374Z,1003.72
2023-01-05T05:05:27.387Z,1003.75
2023-01-05T05:06:27.355Z,1003.79
2023-01-05T05:07:27.345Z,1003.71
2023-01-05T05:08:27.358Z,1003.78
2023-01-05T05:09:27.318Z,1003.68
2023-01-05T05:10:27.340Z,1003.72
2023-01-05T05:11:27.328Z,1003.70
2023-01-05T05:12:27.288Z,1003.70
2023-01-05T05:13:27.273Z,1003.69
2023-01-05T05:14:27.281Z,1003.71
2023-01-05T05:15:27.275Z,1003.69
2023-01-05T05:16:27.291Z,1003.67
2023-01-05T05:17:27.254Z,1003.73
2023-01-05T05:18:27.220Z,1003.79
2023-01-05T05:19:27.210Z,1003.66
2023-01-05T05:20:27.217Z,1003.71
2023-01-05T05:21:27.227Z,1003.69
2023-01-05T05:22:27.177Z,1003.75
2023-01-05T05:23:27.164Z,1003.72
2023-01-05T05:24:27.181Z,1003.71
2023-01-05T05:25:27.179Z,1003.72
2023-01-05T05:26:27.136Z,1003.78
2023-01-05T05:27:27.120Z,1003.74
2023-01-05T05:28:27.120Z,1003.75
2023-01-05T05:29:27.098Z,1003.75
2023-01-05T05:30:27.108Z,1003.82
2023-01-05T05:31:27.159Z,1003.78
2023-01-05T05:32:27.082Z,1003.72
2023-01-05T05:33:27.066Z,1003.79
2023-01-05T05:34:27.048Z,1003.78
2023-01-05T05:35:27.035Z,1003.77
2023-01-05T05:36:27.051Z,1003.78
2023-01-05T05:37:27.031Z,1003.80
2023-01-05T05:38:27.011Z,1003.84
2023-01-05T05:39:26.988Z,1003.90
2023-01-05T05:40:26.992Z,1003.97
2023-01-05T05:41:26.975Z,1003.87
2023-01-05T05:42:26.986Z,1003.84
2023-01-05T05:43:26.946Z,1003.88
2023-01-05T05:44:26.945Z,1003.90
2023-01-05T05:45:26.929Z,1003.80
2023-01-05T05:46:26.954Z,1003.79
2023-01-05T05:47:26.925Z,1003.78
2023-01-05T05:48:26.900Z,1003.75
2023-01-05T05:49:26.882Z,1003.79
2023-01-05T05:50:26.874Z,1003.82
2023-01-05T05:51:26.883Z,1003.77
2023-01-05T05:52:26.876Z,1003.76
2023-01-05T05:53:26.854Z,1003.78
2023-01-05T05:54:26.831Z,1003.86
2023-01-05T05:55:26.808Z,1004.15
2023-01-05T05:56:26.804Z,1004.20
2023-01-05T05:57:26.817Z,1004.22
2023-01-05T05:58:26.782Z,1004.11
2023-01-05T05:59:26.772Z,1004.26
2023-01-05T06:00:26.771Z,1004.25
2023-01-05T06:01:26.817Z,1004.08
2023-01-05T06:02:26.772Z,1003.93
2023-01-05T06:03:26.790Z,1003.88
2023-01-05T06:04:26.719Z,1003.94
2023-01-05T06:05:26.706Z,1003.88
2023-01-05T06:06:26.699Z,1003.88
2023-01-05T06:07:26.683Z,1003.92
2023-01-05T06:08:26.692Z,1003.93
2023-01-05T06:09:26.685Z,1003.86
2023-01-05T06:10:26.654Z,1003.94
2023-01-05T06:11:26.643Z,1003.88
2023-01-05T06:12:26.641Z,1003.97
2023-01-05T06:13:26.619Z,1003.90
2023-01-05T06:14:26.630Z,1003.91
2023-01-05T06:15:26.624Z,1003.98
2023-01-05T06:16:26.644Z,1003.92
2023-01-05T06:17:26.575Z,1004.00
2023-01-05T06:18:26.587Z,1003.98
2023-01-05T06:19:26.577Z,1004.02
2023-01-05T06:20:26.551Z,1004.08
2023-01-05T06:21:26.528Z,1004.07
2023-01-05T06:22:26.518Z,1004.04
2023-01-05T06:23:26.506Z,1004.12
2023-01-05T06:24:26.520Z,1004.15
2023-01-05T06:25:26.529Z,1004.11
2023-01-05T06:26:26.509Z,1004.19
2023-01-05T06:27:26.465Z,1004.16
2023-01-05T06:28:26.461Z,1004.21
2023-01-05T06:29:26.461Z,1004.26
2023-01-05T06:30:26.435Z,1004.25
2023-01-05T06:31:26.475Z,1004.29
2023-01-05T06:32:26.449Z,1004.30
2023-01-05T06:33:26.403Z,1004.17
2023-01-05T06:34:26.422Z,1004.18
2023-01-05T06:35:26.380Z,1004.29
2023-01-05T06:36:26.374Z,1004.31
2023-01-05T06:37:26.385Z,1004.30
2023-01-05T06:38:26.350Z,1004.20
2023-01-05T06:39:26.336Z,1004.19
2023-01-05T06:40:26.351Z,1004.21
2023-01-05T06:41:26.335Z,1004.21
2023-01-05T06:42:26.315Z,1004.39
2023-01-05T06:43:26.296Z,1004.31
2023-01-05T06:44:26.275Z,1004.34
2023-01-05T06:45:26.296Z,1004.37
2023-01-05T06:46:26.253Z,1004.35
2023-01-05T06:47:26.270Z,1004.40
2023-01-05T06:48:26.233Z,1004.40
2023-01-05T06:49:26.223Z,1004.49
2023-01-05T06:50:26.218Z,1004.40
2023-01-05T06:51:26.207Z,1004.46
2023-01-05T06:52:26.213Z,1004.41
2023-01-05T06:53:26.187Z,1004.40
2023-01-05T06:54:26.190Z,1004.45
2023-01-05T06:55:26.166Z,1004.38
2023-01-05T06:56:26.144Z,1004.48
2023-01-05T06:57:26.155Z,1004.39
2023-01-05T06:58:26.146Z,1004.44
2023-01-05T06:59:26.119Z,1004.46
2023-01-05T07:00:26.109Z,1004.41
2023-01-05T07:01:26.365Z,1004.52
2023-01-05T07:02:26.086Z,1004.43
2023-01-05T07:03:26.091Z,1004.44
2023-01-05T07:04:26.159Z,1004.51
2023-01-05T07:05:26.060Z,1004.48
2023-01-05T07:06:26.066Z,1004.57
2023-01-05T07:07:26.024Z,1004.57
2023-01-05T07:08:26.012Z,1004.61
2023-01-05T07:09:26.030Z,1004.59
2023-01-05T07:10:25.996Z,1004.61
2023-01-05T07:11:26.009Z,1004.63
2023-01-05T07:12:25.968Z,1004.57
2023-01-05T07:13:25.990Z,1004.65
2023-01-05T07:14:25.982Z,1004.64
2023-01-05T07:15:25.939Z,1004.66
2023-01-05T07:16:26.035Z,1004.62
2023-01-05T07:17:25.923Z,1004.57
2023-01-05T07:18:25.904Z,1004.68
2023-01-05T07:19:25.922Z,1004.63
2023-01-05T07:20:25.880Z,1004.65
2023-01-05T07:21:25.895Z,1004.60
2023-01-05T07:22:25.864Z,1004.71
2023-01-05T07:23:25.858Z,1004.63
2023-01-05T07:24:25.860Z,1004.66
2023-01-05T07:25:25.830Z,1004.67
2023-01-05T07:26:25.817Z,1004.68
2023-01-05T07:27:25.808Z,1004.68
2023-01-05T07:28:25.794Z,1004.75
2023-01-05T07:29:25.827Z,1004.84
2023-01-05T07:30:25.776Z,1004.81
2023-01-05T07:31:25.894Z,1004.81
2023-01-05T07:32:25.762Z,1004.81
2023-01-05T07:33:25.753Z,1004.86
2023-01-05T07:34:25.731Z,1004.90
2023-01-05T07:35:25.752Z,1004.88
2023-01-05T07:36:25.705Z,1004.98
2023-01-05T07:37:25.746Z,1004.99
2023-01-05T07:38:25.692Z,1004.90
2023-01-05T07:39:25.681Z,1004.90
2023-01-05T07:40:25.704Z,1004.94
2023-01-05T07:41:25.679Z,1004.90
2023-01-05T07:42:25.642Z,1005.00
2023-01-05T07:43:25.634Z,1005.06
2023-01-05T07:44:25.618Z,1005.08
2023-01-05T07:45:25.694Z,1005.00
2023-01-05T07:46:25.664Z,1005.05
2023-01-05T07:47:25.588Z,1005.04
2023-01-05T07:48:25.580Z,1005.08
2023-01-05T07:49:25.565Z,1005.14
2023-01-05T07:50:25.593Z,1005.20
2023-01-05T07:51:25.545Z,1005.22
2023-01-05T07:52:25.553Z,1005.17
2023-01-05T07:53:25.527Z,1005.16
2023-01-05T07:54:25.527Z,1005.24
2023-01-05T07:55:25.522Z,1005.30
2023-01-05T07:56:25.514Z,1005.33
2023-01-05T07:57:25.477Z,1005.25
2023-01-05T07:58:25.487Z,1005.39
2023-01-05T07:59:25.476Z,1005.36
2023-01-05T08:00:25.454Z,1005.31
2023-01-05T08:01:25.654Z,1005.45
2023-01-05T08:02:29.673Z,1005.43
2023-01-05T08:03:26.421Z,1005.36
2023-01-05T08:04:25.440Z,1005.36
2023-01-05T08:05:25.388Z,1005.45
2023-01-05T08:06:25.415Z,1005.46
2023-01-05T08:07:25.390Z,1005.44
2023-01-05T08:08:25.361Z,1005.42
2023-01-05T08:09:25.364Z,1005.44
2023-01-05T08:10:25.381Z,1005.42
2023-01-05T08:11:25.328Z,1005.50
2023-01-05T08:12:25.340Z,1005.45
2023-01-05T08:13:25.306Z,1005.56
2023-01-05T08:14:25.298Z,1005.67
2023-01-05T08:15:25.305Z,1005.58
2023-01-05T08:16:25.364Z,1005.61
2023-01-05T08:17:25.321Z,1005.62
2023-01-05T08:18:25.248Z,1005.75
2023-01-05T08:19:25.242Z,1005.50
2023-01-05T08:20:25.260Z,1005.71
2023-01-05T08:21:25.223Z,1005.71
2023-01-05T08:22:25.241Z,1005.77
2023-01-05T08:23:26.806Z,1005.65
2023-01-05T08:24:25.189Z,1005.85
2023-01-05T08:25:25.190Z,1005.64
2023-01-05T08:26:25.165Z,1005.75
2023-01-05T08:27:25.168Z,1005.75
2023-01-05T08:28:31.299Z,1005.74
2023-01-05T08:29:26.155Z,1005.64
2023-01-05T08:30:25.144Z,1005.84
2023-01-05T08:31:25.187Z,1005.67
2023-01-05T08:32:25.105Z,1005.73
2023-01-05T08:33:25.112Z,1005.85
2023-01-05T08:34:27.648Z,1005.81
2023-01-05T08:35:26.071Z,1005.74
2023-01-05T08:36:25.059Z,1005.75
2023-01-05T08:37:25.050Z,1005.79
2023-01-05T08:38:25.044Z,1005.77
2023-01-05T08:39:25.053Z,1005.83
2023-01-05T08:40:25.046Z,1005.88
2023-01-05T08:41:25.014Z,1005.75
2023-01-05T08:42:24.995Z,1005.74
2023-01-05T08:43:24.987Z,1005.82
2023-01-05T08:44:24.988Z,1005.70
2023-01-05T08:45:24.995Z,1005.77
2023-01-05T08:46:25.056Z,1005.85
2023-01-05T08:47:28.212Z,1005.85
2023-01-05T08:48:24.950Z,1005.91
2023-01-05T08:49:24.969Z,1005.84
2023-01-05T08:50:24.911Z,1005.85
2023-01-05T08:51:24.955Z,1005.70
2023-01-05T08:52:24.888Z,1005.88
2023-01-05T08:53:24.876Z,1005.91
2023-01-05T08:54:24.871Z,1005.86
2023-01-05T08:55:24.854Z,1005.93
2023-01-05T08:56:24.870Z,1005.89
2023-01-05T08:57:24.842Z,1005.89
2023-01-05T08:58:24.823Z,1005.78
2023-01-05T08:59:24.809Z,1005.78
2023-01-05T09:00:24.818Z,1005.98
2023-01-05T09:01:24.977Z,1005.81
2023-01-05T09:02:26.067Z,1005.89
2023-01-05T09:03:24.807Z,1005.95
2023-01-05T09:04:24.777Z,1005.83
2023-01-05T09:05:24.768Z,1005.83
2023-01-05T09:06:24.742Z,1006.04
2023-01-05T09:07:24.730Z,1005.91
2023-01-05T09:08:24.733Z,1006.08
2023-01-05T09:09:24.699Z,1006.05
2023-01-05T09:10:24.708Z,1006.22
2023-01-05T09:11:24.706Z,1006.03
2023-01-05T09:12:29.185Z,1006.11
2023-01-05T09:13:25.662Z,1006.04
2023-01-05T09:14:24.651Z,1006.15
2023-01-05T09:15:24.641Z,1006.15
2023-01-05T09:16:56.918Z,1006.22
2023-01-05T09:17:25.660Z,1006.19
2023-01-05T09:18:24.602Z,1006.25
2023-01-05T09:19:24.608Z,1006.34
2023-01-05T09:20:24.577Z,1006.18
2023-01-05T09:21:24.631Z,1006.27
2023-01-05T09:22:24.558Z,1006.31
2023-01-05T09:23:24.587Z,1006.38
2023-01-05T09:24:24.543Z,1006.32
2023-01-05T09:25:24.532Z,1006.28
2023-01-05T09:26:24.513Z,1006.43
2023-01-05T09:27:24.530Z,1006.34
2023-01-05T09:28:24.532Z,1006.39
2023-01-05T09:29:24.484Z,1006.41
2023-01-05T09:30:24.481Z,1006.46
2023-01-05T09:31:24.495Z,1006.43
2023-01-05T09:32:24.447Z,1006.41
2023-01-05T09:33:24.457Z,1006.46
2023-01-05T09:34:24.425Z,1006.52
2023-01-05T09:35:24.418Z,1006.50
2023-01-05T09:36:24.451Z,1006.51
2023-01-05T09:37:24.540Z,1006.49
2023-01-05T09:38:24.420Z,1006.43
2023-01-05T09:39:24.379Z,1006.52
2023-01-05T09:40:24.371Z,1006.55
2023-01-05T09:41:24.355Z,1006.69
2023-01-05T09:42:24.359Z,1006.61
2023-01-05T09:43:24.329Z,1006.60
2023-01-05T09:44:24.318Z,1006.74
2023-01-05T09:45:24.317Z,1006.75
2023-01-05T09:46:24.467Z,1006.74
2023-01-05T09:47:24.309Z,1006.62
2023-01-05T09:48:24.271Z,1006.66
2023-01-05T09:49:24.262Z,1006.69
2023-01-05T09:50:24.251Z,1006.58
2023-01-05T09:51:24.244Z,1006.72
2023-01-05T09:52:24.254Z,1006.67
2023-01-05T09:53:24.341Z,1006.81
2023-01-05T09:54:24.216Z,1006.78
2023-01-05T09:55:24.205Z,1006.74
2023-01-05T09:56:58.879Z,1006.82
2023-01-05T09:57:25.199Z,1006.96
2023-01-05T09:58:29.700Z,1006.73
2023-01-05T09:59:25.162Z,1006.74
2023-01-05T10:00:24.166Z,1006.64
2023-01-05T10:01:24.206Z,1006.69
2023-01-05T10:02:24.152Z,1006.72
2023-01-05T10:04:01.920Z,1006.75
2023-01-05T10:04:30.303Z,1006.80
2023-01-05T10:05:25.251Z,1006.87
2023-01-05T10:06:24.078Z,1006.61
2023-01-05T10:07:24.070Z,1006.76
2023-01-05T10:08:24.161Z,1006.71
2023-01-05T10:09:24.164Z,1006.69
2023-01-05T10:10:30.231Z,1006.70
2023-01-05T10:11:25.017Z,1006.82
2023-01-05T10:12:24.012Z,1006.64
2023-01-05T10:13:24.021Z,1006.82
2023-01-05T10:14:23.992Z,1006.74
2023-01-05T10:15:23.976Z,1006.67
2023-01-05T10:16:29.300Z,1006.75
2023-01-05T10:17:42.776Z,1006.60
2023-01-05T10:18:25.052Z,1006.70
2023-01-05T10:19:23.943Z,1006.69
2023-01-05T10:20:23.922Z,1006.60
2023-01-05T10:21:23.949Z,1006.75
2023-01-05T10:22:23.922Z,1006.72
2023-01-05T10:23:23.911Z,1006.75
2023-01-05T10:24:23.883Z,1006.66
2023-01-05T10:25:23.983Z,1006.73
2023-01-05T10:26:23.855Z,1006.84
2023-01-05T10:27:25.613Z,1006.86
2023-01-05T10:28:23.904Z,1006.77
2023-01-05T10:29:23.849Z,1006.72
2023-01-05T10:30:23.820Z,1006.90
2023-01-05T10:31:23.993Z,1006.80
2023-01-05T10:32:23.796Z,1006.74
2023-01-05T10:33:35.674Z,1006.79
2023-01-05T10:34:24.805Z,1006.87
2023-01-05T10:35:59.011Z,1006.84
2023-01-05T10:36:57.531Z,1006.75
2023-01-05T10:37:24.751Z,1006.98
2023-01-05T10:38:23.800Z,1006.87
2023-01-05T10:39:23.729Z,1006.98
2023-01-05T10:40:23.708Z,1007.02
2023-01-05T10:41:23.808Z,1006.88
2023-01-05T10:42:23.681Z,1006.89
2023-01-05T10:43:23.709Z,1006.91
2023-01-05T10:44:23.684Z,1007.10
2023-01-05T10:45:23.660Z,1006.92
2023-01-05T10:46:43.661Z,1007.11
2023-01-05T10:47:24.712Z,1007.01
2023-01-05T10:48:23.638Z,1006.93
2023-01-05T10:49:23.604Z,1006.98
2023-01-05T10:50:23.618Z,1007.00
2023-01-05T10:51:23.588Z,1007.03
2023-01-05T10:52:23.577Z,1007.10
2023-01-05T10:53:23.562Z,1007.06
2023-01-05T10:54:23.584Z,1007.12
2023-01-05T10:55:23.571Z,1007.20
2023-01-05T10:56:23.538Z,1007.07
2023-01-05T10:57:26.578Z,1007.24
2023-01-05T10:58:24.511Z,1007.13
2023-01-05T10:59:23.556Z,1007.31
2023-01-05T11:00:23.509Z,1007.17
2023-01-05T11:01:23.637Z,1007.29
2023-01-05T11:02:23.631Z,1007.18
2023-01-05T11:03:46.717Z,1007.23
2023-01-05T11:04:33.230Z,1007.28
2023-01-05T11:05:24.488Z,1007.31
2023-01-05T11:06:23.427Z,1007.26
2023-01-05T11:07:23.431Z,1007.23
2023-01-05T11:08:23.397Z,1007.28
2023-01-05T11:09:23.391Z,1007.29
2023-01-05T11:10:23.373Z,1007.19
2023-01-05T11:11:23.368Z,1007.46
2023-01-05T11:12:23.374Z,1007.31
2023-01-05T11:13:23.451Z,1007.41
2023-01-05T11:14:23.342Z,1007.45
2023-01-05T11:15:23.318Z,1007.42
2023-01-05T11:16:23.344Z,1007.39
2023-01-05T11:17:23.324Z,1007.41
2023-01-05T11:18:23.312Z,1007.39
2023-01-05T11:19:23.276Z,1007.36
2023-01-05T11:20:23.277Z,1007.54
2023-01-05T11:21:23.260Z,1007.40
2023-01-05T11:22:23.284Z,1007.41
2023-01-05T11:23:23.233Z,1007.47
2023-01-05T11:24:23.231Z,1007.54
2023-01-05T11:25:23.210Z,1007.27
2023-01-05T11:26:23.200Z,1007.42
2023-01-05T11:27:23.190Z,1007.46
2023-01-05T11:28:23.215Z,1007.43
2023-01-05T11:29:23.193Z,1007.46
2023-01-05T11:30:23.156Z,1007.49
2023-01-05T11:31:23.201Z,1007.48
2023-01-05T11:32:23.140Z,1007.52
2023-01-05T11:33:25.290Z,1007.57
2023-01-05T11:34:23.116Z,1007.56
2023-01-05T11:35:23.104Z,1007.61
2023-01-05T11:36:23.093Z,1007.61
2023-01-05T11:37:23.079Z,1007.66
2023-01-05T11:38:23.098Z,1007.59
2023-01-05T11:39:23.073Z,1007.73
2023-01-05T11:40:23.054Z,1007.66
2023-01-05T11:41:23.037Z,1007.72
2023-01-05T11:42:25.643Z,1007.84
2023-01-05T11:43:23.028Z,1007.70
2023-01-05T11:44:23.003Z,1007.80
2023-01-05T11:45:23.104Z,1007.79
2023-01-05T11:46:23.057Z,1007.74
2023-01-05T11:47:22.994Z,1007.94
2023-01-05T11:48:22.962Z,1007.87
2023-01-05T11:49:22.945Z,1007.91
2023-01-05T11:50:22.939Z,1007.93
2023-01-05T11:51:27.603Z,1007.87
2023-01-05T11:52:22.924Z,1008.04
2023-01-05T11:53:22.929Z,1008.04
2023-01-05T11:54:22.896Z,1008.02
2023-01-05T11:55:22.878Z,1008.01
2023-01-05T11:56:22.892Z,1008.09
2023-01-05T11:57:22.859Z,1008.07
2023-01-05T11:58:22.894Z,1008.25
2023-01-05T11:59:22.838Z,1008.06
2023-01-05T12:00:22.882Z,1008.09
2023-01-05T12:01:22.980Z,1008.10
2023-01-05T12:02:22.908Z,1007.89
2023-01-05T12:03:22.817Z,1008.07
2023-01-05T12:04:22.824Z,1008.19
2023-01-05T12:05:22.779Z,1008.20